Ravels, Belgium
Current Conditions -  °F | °C
As of 7:55 AM on Thursday 27 Nov 2014 (Local Time) from EHGR Reporting Station
Haze Haze  
Wind Chill: 40°   Ceiling: 1000
Heat Index: 45°   Visibility: 4mi
Dew Point: 45°   Wind: 8mph
Humidity: 100%   Direction: 130°SE
Pressure: 29.74"   Gusts: NA
Location:  51.37°N, 4.99°E
Report Text: EHGR 270655Z AUTO 13007KT 7000 BR OVC010 07/07 Q1007 GRN
Loading
Personal Weather Stations






























Interactive Weather Map New forecast layout! Learn more

10-Day Weather Forecast

Advertisements
Track Severe Weather on mobile